sensor_id;sensor_type;location;lat;lon;timestamp;temperature;humidity
7936;DHT22;4013;49.744;8.118;2023-04-23T00:00:25;13.40;99.90
7936;DHT22;4013;49.744;8.118;2023-04-23T00:02:53;13.40;99.90
7936;DHT22;4013;49.744;8.118;2023-04-23T00:05:26;13.40;99.90
7936;DHT22;4013;49.744;8.118;2023-04-23T00:07:56;13.40;99.90
7936;DHT22;4013;49.744;8.118;2023-04-23T00:10:26;13.30;99.90
7936;DHT22;4013;49.744;8.118;2023-04-23T00:12:53;13.30;99.90
7936;DHT22;4013;49.744;8.118;2023-04-23T00:15:21;13.30;99.90
7936;DHT22;4013;49.744;8.118;2023-04-23T00:17:48;13.30;99.90
7936;DHT22;4013;49.744;8.118;2023-04-23T00:20:15;13.30;99.90
7936;DHT22;4013;49.744;8.118;2023-04-23T00:22:42;13.20;99.90
7936;DHT22;4013;49.744;8.118;2023-04-23T00:25:10;13.20;99.90
7936;DHT22;4013;49.744;8.118;2023-04-23T00:27:37;13.20;99.90
7936;DHT22;4013;49.744;8.118;2023-04-23T00:30:05;13.20;99.90
7936;DHT22;4013;49.744;8.118;2023-04-23T00:32:33;13.20;99.90
7936;DHT22;4013;49.744;8.118;2023-04-23T00:35:00;13.10;99.90
7936;DHT22;4013;49.744;8.118;2023-04-23T00:37:27;13.10;99.90
7936;DHT22;4013;49.744;8.118;2023-04-23T00:39:54;13.10;99.90
7936;DHT22;4013;49.744;8.118;2023-04-23T00:42:22;13.10;99.90
7936;DHT22;4013;49.744;8.118;2023-04-23T00:44:49;13.10;99.90
7936;DHT22;4013;49.744;8.118;2023-04-23T00:47:17;13.20;99.90
7936;DHT22;4013;49.744;8.118;2023-04-23T00:49:45;13.20;99.90
7936;DHT22;4013;49.744;8.118;2023-04-23T00:52:12;13.10;99.90
7936;DHT22;4013;49.744;8.118;2023-04-23T00:54:39;13.10;99.90
7936;DHT22;4013;49.744;8.118;2023-04-23T00:57:06;13.20;99.90
7936;DHT22;4013;49.744;8.118;2023-04-23T00:59:35;13.10;99.90
7936;DHT22;4013;49.744;8.118;2023-04-23T01:02:02;13.10;99.90
7936;DHT22;4013;49.744;8.118;2023-04-23T01:04:30;13.00;99.90
7936;DHT22;4013;49.744;8.118;2023-04-23T01:06:58;13.10;99.90
7936;DHT22;4013;49.744;8.118;2023-04-23T01:09:26;13.10;99.90
7936;DHT22;4013;49.744;8.118;2023-04-23T01:11:53;13.10;99.90
7936;DHT22;4013;49.744;8.118;2023-04-23T01:14:20;13.10;99.90
7936;DHT22;4013;49.744;8.118;2023-04-23T01:16:49;13.10;99.90
7936;DHT22;4013;49.744;8.118;2023-04-23T01:19:17;13.10;99.90
7936;DHT22;4013;49.744;8.118;2023-04-23T01:21:44;13.00;99.90
7936;DHT22;4013;49.744;8.118;2023-04-23T01:24:13;13.10;99.90
7936;DHT22;4013;49.744;8.118;2023-04-23T01:26:40;13.10;99.90
7936;DHT22;4013;49.744;8.118;2023-04-23T01:29:07;13.10;99.90
7936;DHT22;4013;49.744;8.118;2023-04-23T01:31:34;13.10;99.90
7936;DHT22;4013;49.744;8.118;2023-04-23T01:34:02;13.00;99.90
7936;DHT22;4013;49.744;8.118;2023-04-23T01:36:29;13.00;99.90
7936;DHT22;4013;49.744;8.118;2023-04-23T01:38:56;13.10;99.90
7936;DHT22;4013;49.744;8.118;2023-04-23T01:41:25;13.00;99.90
7936;DHT22;4013;49.744;8.118;2023-04-23T01:43:52;13.00;99.90
7936;DHT22;4013;49.744;8.118;2023-04-23T01:46:19;12.90;99.90
7936;DHT22;4013;49.744;8.118;2023-04-23T01:48:46;12.90;99.90
7936;DHT22;4013;49.744;8.118;2023-04-23T01:51:13;12.90;99.90
7936;DHT22;4013;49.744;8.118;2023-04-23T01:53:40;12.90;99.90
7936;DHT22;4013;49.744;8.118;2023-04-23T01:56:08;12.80;99.90
7936;DHT22;4013;49.744;8.118;2023-04-23T01:58:36;12.80;99.90
7936;DHT22;4013;49.744;8.118;2023-04-23T02:01:03;12.90;99.90
7936;DHT22;4013;49.744;8.118;2023-04-23T02:03:31;12.90;99.90
7936;DHT22;4013;49.744;8.118;2023-04-23T02:05:59;12.80;99.90
7936;DHT22;4013;49.744;8.118;2023-04-23T02:08:26;12.80;99.90
7936;DHT22;4013;49.744;8.118;2023-04-23T02:10:53;12.90;99.90
7936;DHT22;4013;49.744;8.118;2023-04-23T02:13:20;12.90;99.90
7936;DHT22;4013;49.744;8.118;2023-04-23T02:15:48;12.90;99.90
7936;DHT22;4013;49.744;8.118;2023-04-23T02:18:15;12.90;99.90
7936;DHT22;4013;49.744;8.118;2023-04-23T02:20:42;12.90;99.90
7936;DHT22;4013;49.744;8.118;2023-04-23T02:23:09;12.90;99.90
7936;DHT22;4013;49.744;8.118;2023-04-23T02:25:36;12.90;99.90
7936;DHT22;4013;49.744;8.118;2023-04-23T02:28:04;12.90;99.90
7936;DHT22;4013;49.744;8.118;2023-04-23T02:30:32;12.80;99.90
7936;DHT22;4013;49.744;8.118;2023-04-23T02:33:00;12.80;99.90
7936;DHT22;4013;49.744;8.118;2023-04-23T02:35:28;12.80;99.90
7936;DHT22;4013;49.744;8.118;2023-04-23T02:37:55;12.80;99.90
7936;DHT22;4013;49.744;8.118;2023-04-23T02:40:23;12.70;99.90
7936;DHT22;4013;49.744;8.118;2023-04-23T02:42:49;12.70;99.90
7936;DHT22;4013;49.744;8.118;2023-04-23T02:45:16;12.70;99.90
7936;DHT22;4013;49.744;8.118;2023-04-23T02:47:43;12.70;99.90
7936;DHT22;4013;49.744;8.118;2023-04-23T02:50:12;12.70;99.90
7936;DHT22;4013;49.744;8.118;2023-04-23T02:52:39;12.70;99.90
7936;DHT22;4013;49.744;8.118;2023-04-23T02:55:07;12.70;99.90
7936;DHT22;4013;49.744;8.118;2023-04-23T02:57:34;12.70;99.90
7936;DHT22;4013;49.744;8.118;2023-04-23T03:00:02;12.70;99.90
7936;DHT22;4013;49.744;8.118;2023-04-23T03:02:32;12.60;99.90
7936;DHT22;4013;49.744;8.118;2023-04-23T03:04:58;12.60;99.90
7936;DHT22;4013;49.744;8.118;2023-04-23T03:07:27;12.50;99.90
7936;DHT22;4013;49.744;8.118;2023-04-23T03:09:54;12.50;99.90
7936;DHT22;4013;49.744;8.118;2023-04-23T03:12:21;12.50;99.90
7936;DHT22;4013;49.744;8.118;2023-04-23T03:14:48;12.50;99.90
7936;DHT22;4013;49.744;8.118;2023-04-23T03:17:14;12.60;99.90
7936;DHT22;4013;49.744;8.118;2023-04-23T03:19:42;12.50;99.90
7936;DHT22;4013;49.744;8.118;2023-04-23T03:22:09;12.50;99.90
7936;DHT22;4013;49.744;8.118;2023-04-23T03:24:37;12.50;99.90
7936;DHT22;4013;49.744;8.118;2023-04-23T03:27:04;12.60;99.90
7936;DHT22;4013;49.744;8.118;2023-04-23T03:29:31;12.50;99.90
7936;DHT22;4013;49.744;8.118;2023-04-23T03:31:58;12.60;99.90
7936;DHT22;4013;49.744;8.118;2023-04-23T03:34:25;12.60;99.90
7936;DHT22;4013;49.744;8.118;2023-04-23T03:36:52;12.50;99.90
7936;DHT22;4013;49.744;8.118;2023-04-23T03:39:19;12.50;99.90
7936;DHT22;4013;49.744;8.118;2023-04-23T03:41:47;12.50;99.90
7936;DHT22;4013;49.744;8.118;2023-04-23T03:44:15;12.50;99.90
7936;DHT22;4013;49.744;8.118;2023-04-23T03:46:42;12.50;99.90
7936;DHT22;4013;49.744;8.118;2023-04-23T03:49:09;12.50;99.90
7936;DHT22;4013;49.744;8.118;2023-04-23T03:51:35;12.50;99.90
7936;DHT22;4013;49.744;8.118;2023-04-23T03:54:03;12.50;99.90
7936;DHT22;4013;49.744;8.118;2023-04-23T03:56:30;12.40;99.90
7936;DHT22;4013;49.744;8.118;2023-04-23T03:58:58;12.40;99.90
7936;DHT22;4013;49.744;8.118;2023-04-23T04:01:25;12.40;99.90
7936;DHT22;4013;49.744;8.118;2023-04-23T04:03:52;12.40;99.90
7936;DHT22;4013;49.744;8.118;2023-04-23T04:06:19;12.40;99.90
7936;DHT22;4013;49.744;8.118;2023-04-23T04:08:46;12.40;99.90
7936;DHT22;4013;49.744;8.118;2023-04-23T04:11:12;12.40;99.90
7936;DHT22;4013;49.744;8.118;2023-04-23T04:13:39;12.40;99.90
7936;DHT22;4013;49.744;8.118;2023-04-23T04:16:08;12.40;99.90
7936;DHT22;4013;49.744;8.118;2023-04-23T04:18:35;12.40;99.90
7936;DHT22;4013;49.744;8.118;2023-04-23T04:21:03;12.30;99.90
7936;DHT22;4013;49.744;8.118;2023-04-23T04:23:31;12.30;99.90
7936;DHT22;4013;49.744;8.118;2023-04-23T04:25:58;12.40;99.90
7936;DHT22;4013;49.744;8.118;2023-04-23T04:28:25;12.30;99.90
7936;DHT22;4013;49.744;8.118;2023-04-23T04:30:52;12.20;99.90
7936;DHT22;4013;49.744;8.118;2023-04-23T04:33:23;12.20;99.90
7936;DHT22;4013;49.744;8.118;2023-04-23T04:35:50;12.10;99.90
7936;DHT22;4013;49.744;8.118;2023-04-23T04:38:17;12.10;99.90
7936;DHT22;4013;49.744;8.118;2023-04-23T04:40:44;12.00;99.90
7936;DHT22;4013;49.744;8.118;2023-04-23T04:43:11;12.00;99.90
7936;DHT22;4013;49.744;8.118;2023-04-23T04:45:38;11.90;99.90
7936;DHT22;4013;49.744;8.118;2023-04-23T04:48:05;11.90;99.90
7936;DHT22;4013;49.744;8.118;2023-04-23T04:50:34;11.90;99.90
7936;DHT22;4013;49.744;8.118;2023-04-23T04:53:01;11.80;99.90
7936;DHT22;4013;49.744;8.118;2023-04-23T04:55:28;11.80;99.90
7936;DHT22;4013;49.744;8.118;2023-04-23T04:57:55;11.90;99.90
7936;DHT22;4013;49.744;8.118;2023-04-23T05:00:23;11.80;99.90
7936;DHT22;4013;49.744;8.118;2023-04-23T05:02:52;11.80;99.90
7936;DHT22;4013;49.744;8.118;2023-04-23T05:05:21;11.80;99.90
7936;DHT22;4013;49.744;8.118;2023-04-23T05:07:50;11.70;99.90
7936;DHT22;4013;49.744;8.118;2023-04-23T05:10:19;11.70;99.90
7936;DHT22;4013;49.744;8.118;2023-04-23T05:12:46;11.70;99.90
7936;DHT22;4013;49.744;8.118;2023-04-23T05:15:13;11.80;99.90
7936;DHT22;4013;49.744;8.118;2023-04-23T05:17:41;11.80;99.90
7936;DHT22;4013;49.744;8.118;2023-04-23T05:20:09;11.80;99.90
7936;DHT22;4013;49.744;8.118;2023-04-23T05:22:36;11.80;99.90
7936;DHT22;4013;49.744;8.118;2023-04-23T05:25:06;11.80;99.90
7936;DHT22;4013;49.744;8.118;2023-04-23T05:27:33;11.80;99.90
7936;DHT22;4013;49.744;8.118;2023-04-23T05:30:01;11.80;99.90
7936;DHT22;4013;49.744;8.118;2023-04-23T05:32:28;11.90;99.90
7936;DHT22;4013;49.744;8.118;2023-04-23T05:34:55;11.90;99.90
7936;DHT22;4013;49.744;8.118;2023-04-23T05:37:21;12.00;99.90
7936;DHT22;4013;49.744;8.118;2023-04-23T05:39:48;12.00;99.90
7936;DHT22;4013;49.744;8.118;2023-04-23T05:42:17;12.10;99.90
7936;DHT22;4013;49.744;8.118;2023-04-23T05:44:44;12.10;99.90
7936;DHT22;4013;49.744;8.118;2023-04-23T05:47:12;12.10;99.90
7936;DHT22;4013;49.744;8.118;2023-04-23T05:49:39;12.20;99.90
7936;DHT22;4013;49.744;8.118;2023-04-23T05:52:06;12.20;99.90
7936;DHT22;4013;49.744;8.118;2023-04-23T05:54:33;12.30;99.90
7936;DHT22;4013;49.744;8.118;2023-04-23T05:57:00;12.30;99.90
7936;DHT22;4013;49.744;8.118;2023-04-23T05:59:30;12.40;99.90
7936;DHT22;4013;49.744;8.118;2023-04-23T06:01:57;12.60;99.90
7936;DHT22;4013;49.744;8.118;2023-04-23T06:04:25;12.60;99.90
7936;DHT22;4013;49.744;8.118;2023-04-23T06:06:52;12.70;99.90
7936;DHT22;4013;49.744;8.118;2023-04-23T06:09:19;12.90;99.90
7936;DHT22;4013;49.744;8.118;2023-04-23T06:11:46;13.00;99.90
7936;DHT22;4013;49.744;8.118;2023-04-23T06:14:15;13.10;99.90
7936;DHT22;4013;49.744;8.118;2023-04-23T06:16:43;13.20;99.90
7936;DHT22;4013;49.744;8.118;2023-04-23T06:19:10;13.30;99.90
7936;DHT22;4013;49.744;8.118;2023-04-23T06:21:37;13.30;99.90
7936;DHT22;4013;49.744;8.118;2023-04-23T06:24:05;13.30;99.90
7936;DHT22;4013;49.744;8.118;2023-04-23T06:26:32;13.40;99.90
7936;DHT22;4013;49.744;8.118;2023-04-23T06:28:59;13.50;99.90
7936;DHT22;4013;49.744;8.118;2023-04-23T06:31:27;13.60;99.90
7936;DHT22;4013;49.744;8.118;2023-04-23T06:33:55;13.70;99.90
7936;DHT22;4013;49.744;8.118;2023-04-23T06:36:22;13.80;99.90
7936;DHT22;4013;49.744;8.118;2023-04-23T06:38:49;13.90;99.90
7936;DHT22;4013;49.744;8.118;2023-04-23T06:41:16;13.90;99.90
7936;DHT22;4013;49.744;8.118;2023-04-23T06:43:43;13.90;99.90
7936;DHT22;4013;49.744;8.118;2023-04-23T06:46:12;14.10;99.90
7936;DHT22;4013;49.744;8.118;2023-04-23T06:48:39;14.00;99.90
7936;DHT22;4013;49.744;8.118;2023-04-23T06:51:08;14.00;99.90
7936;DHT22;4013;49.744;8.118;2023-04-23T06:53:35;13.90;99.90
7936;DHT22;4013;49.744;8.118;2023-04-23T06:56:02;14.00;99.90
7936;DHT22;4013;49.744;8.118;2023-04-23T06:58:29;14.10;99.90
7936;DHT22;4013;49.744;8.118;2023-04-23T07:00:56;14.00;99.90
7936;DHT22;4013;49.744;8.118;2023-04-23T07:03:25;13.90;99.90
7936;DHT22;4013;49.744;8.118;2023-04-23T07:05:53;13.90;99.90
7936;DHT22;4013;49.744;8.118;2023-04-23T07:08:21;13.90;99.90
7936;DHT22;4013;49.744;8.118;2023-04-23T07:10:48;13.90;99.90
7936;DHT22;4013;49.744;8.118;2023-04-23T07:13:16;14.10;99.90
7936;DHT22;4013;49.744;8.118;2023-04-23T07:15:43;14.20;99.90
7936;DHT22;4013;49.744;8.118;2023-04-23T07:18:11;14.40;99.90
7936;DHT22;4013;49.744;8.118;2023-04-23T07:20:38;14.50;99.90
7936;DHT22;4013;49.744;8.118;2023-04-23T07:23:05;14.60;99.90
7936;DHT22;4013;49.744;8.118;2023-04-23T07:25:33;14.70;99.90
7936;DHT22;4013;49.744;8.118;2023-04-23T07:28:00;14.80;99.90
7936;DHT22;4013;49.744;8.118;2023-04-23T07:30:27;14.80;99.90
7936;DHT22;4013;49.744;8.118;2023-04-23T07:32:54;14.70;99.90
7936;DHT22;4013;49.744;8.118;2023-04-23T07:35:21;14.70;99.90
7936;DHT22;4013;49.744;8.118;2023-04-23T07:37:48;14.70;99.90
7936;DHT22;4013;49.744;8.118;2023-04-23T07:40:19;14.70;99.90
7936;DHT22;4013;49.744;8.118;2023-04-23T07:42:48;14.70;99.90
7936;DHT22;4013;49.744;8.118;2023-04-23T07:45:16;14.60;99.90
7936;DHT22;4013;49.744;8.118;2023-04-23T07:47:43;14.70;99.90
7936;DHT22;4013;49.744;8.118;2023-04-23T07:50:11;14.90;99.90
7936;DHT22;4013;49.744;8.118;2023-04-23T07:52:39;14.90;99.90
7936;DHT22;4013;49.744;8.118;2023-04-23T07:55:07;14.90;99.90
7936;DHT22;4013;49.744;8.118;2023-04-23T07:57:34;14.90;99.90
7936;DHT22;4013;49.744;8.118;2023-04-23T08:00:03;15.00;99.90
7936;DHT22;4013;49.744;8.118;2023-04-23T08:02:30;15.10;99.90
7936;DHT22;4013;49.744;8.118;2023-04-23T08:04:58;15.00;99.90
7936;DHT22;4013;49.744;8.118;2023-04-23T08:07:25;15.10;99.90
7936;DHT22;4013;49.744;8.118;2023-04-23T08:09:52;14.90;99.90
7936;DHT22;4013;49.744;8.118;2023-04-23T08:12:19;15.00;99.90
7936;DHT22;4013;49.744;8.118;2023-04-23T08:14:46;15.10;99.90
7936;DHT22;4013;49.744;8.118;2023-04-23T08:17:14;15.20;99.90
7936;DHT22;4013;49.744;8.118;2023-04-23T08:19:41;15.10;99.90
7936;DHT22;4013;49.744;8.118;2023-04-23T08:22:08;15.10;99.90
7936;DHT22;4013;49.744;8.118;2023-04-23T08:24:35;15.30;99.90
7936;DHT22;4013;49.744;8.118;2023-04-23T08:27:02;15.50;99.90
7936;DHT22;4013;49.744;8.118;2023-04-23T08:29:29;15.60;99.90
7936;DHT22;4013;49.744;8.118;2023-04-23T08:31:56;15.50;99.90
7936;DHT22;4013;49.744;8.118;2023-04-23T08:34:25;15.50;99.90
7936;DHT22;4013;49.744;8.118;2023-04-23T08:36:51;15.40;99.90
7936;DHT22;4013;49.744;8.118;2023-04-23T08:39:18;15.20;99.90
7936;DHT22;4013;49.744;8.118;2023-04-23T08:41:51;15.20;99.90
7936;DHT22;4013;49.744;8.118;2023-04-23T08:44:22;15.20;99.90
7936;DHT22;4013;49.744;8.118;2023-04-23T08:46:49;15.20;99.90
7936;DHT22;4013;49.744;8.118;2023-04-23T08:49:18;15.10;99.90
7936;DHT22;4013;49.744;8.118;2023-04-23T08:51:48;15.30;99.90
7936;DHT22;4013;49.744;8.118;2023-04-23T08:54:20;15.40;99.90
7936;DHT22;4013;49.744;8.118;2023-04-23T08:56:48;15.50;99.90
7936;DHT22;4013;49.744;8.118;2023-04-23T08:59:16;15.60;99.90
7936;DHT22;4013;49.744;8.118;2023-04-23T09:01:45;15.70;99.90
7936;DHT22;4013;49.744;8.118;2023-04-23T09:04:13;15.80;99.90
7936;DHT22;4013;49.744;8.118;2023-04-23T09:06:42;15.80;99.90
7936;DHT22;4013;49.744;8.118;2023-04-23T09:09:11;15.90;99.90
7936;DHT22;4013;49.744;8.118;2023-04-23T09:11:38;15.90;99.90
7936;DHT22;4013;49.744;8.118;2023-04-23T09:14:05;15.90;99.90
7936;DHT22;4013;49.744;8.118;2023-04-23T09:16:32;15.90;99.90
7936;DHT22;4013;49.744;8.118;2023-04-23T09:19:01;16.00;99.90
7936;DHT22;4013;49.744;8.118;2023-04-23T09:21:28;16.20;99.90
7936;DHT22;4013;49.744;8.118;2023-04-23T09:23:58;16.20;99.90
7936;DHT22;4013;49.744;8.118;2023-04-23T09:26:31;16.40;99.90
7936;DHT22;4013;49.744;8.118;2023-04-23T09:28:58;16.50;99.90
7936;DHT22;4013;49.744;8.118;2023-04-23T09:31:25;16.50;99.90
7936;DHT22;4013;49.744;8.118;2023-04-23T09:33:53;16.60;99.90
7936;DHT22;4013;49.744;8.118;2023-04-23T09:36:20;16.60;99.90
7936;DHT22;4013;49.744;8.118;2023-04-23T09:38:48;16.50;99.90
7936;DHT22;4013;49.744;8.118;2023-04-23T09:41:22;16.40;99.90
7936;DHT22;4013;49.744;8.118;2023-04-23T09:43:53;16.40;99.90
7936;DHT22;4013;49.744;8.118;2023-04-23T09:46:32;16.70;99.90
7936;DHT22;4013;49.744;8.118;2023-04-23T09:49:01;16.70;99.90
7936;DHT22;4013;49.744;8.118;2023-04-23T09:51:28;16.80;99.90
7936;DHT22;4013;49.744;8.118;2023-04-23T09:53:56;16.80;99.90
7936;DHT22;4013;49.744;8.118;2023-04-23T09:56:23;16.80;99.90
7936;DHT22;4013;49.744;8.118;2023-04-23T09:58:50;16.80;99.90
7936;DHT22;4013;49.744;8.118;2023-04-23T10:01:26;16.80;99.90
7936;DHT22;4013;49.744;8.118;2023-04-23T10:03:54;16.80;99.90
7936;DHT22;4013;49.744;8.118;2023-04-23T10:06:26;16.90;99.90
7936;DHT22;4013;49.744;8.118;2023-04-23T10:08:55;17.00;99.90
7936;DHT22;4013;49.744;8.118;2023-04-23T10:11:23;17.10;99.90
7936;DHT22;4013;49.744;8.118;2023-04-23T10:13:52;17.20;99.90
7936;DHT22;4013;49.744;8.118;2023-04-23T10:16:22;17.30;99.90
7936;DHT22;4013;49.744;8.118;2023-04-23T10:18:50;17.50;99.90
7936;DHT22;4013;49.744;8.118;2023-04-23T10:21:19;17.70;99.90
7936;DHT22;4013;49.744;8.118;2023-04-23T10:23:51;17.80;99.90
7936;DHT22;4013;49.744;8.118;2023-04-23T10:26:19;17.80;99.90
7936;DHT22;4013;49.744;8.118;2023-04-23T10:28:49;17.60;99.90
7936;DHT22;4013;49.744;8.118;2023-04-23T10:31:19;17.60;99.90
7936;DHT22;4013;49.744;8.118;2023-04-23T10:33:49;17.60;99.90
7936;DHT22;4013;49.744;8.118;2023-04-23T10:36:16;17.60;99.90
7936;DHT22;4013;49.744;8.118;2023-04-23T10:38:44;17.70;99.90
7936;DHT22;4013;49.744;8.118;2023-04-23T10:41:15;17.70;99.90
7936;DHT22;4013;49.744;8.118;2023-04-23T10:43:42;17.90;99.90
7936;DHT22;4013;49.744;8.118;2023-04-23T10:46:27;18.00;99.90
7936;DHT22;4013;49.744;8.118;2023-04-23T10:49:12;18.00;99.90
7936;DHT22;4013;49.744;8.118;2023-04-23T10:51:41;18.00;99.90
7936;DHT22;4013;49.744;8.118;2023-04-23T10:54:08;17.90;99.90
7936;DHT22;4013;49.744;8.118;2023-04-23T10:56:40;17.70;99.90
7936;DHT22;4013;49.744;8.118;2023-04-23T10:59:09;17.50;99.90
7936;DHT22;4013;49.744;8.118;2023-04-23T11:01:45;17.40;99.90
7936;DHT22;4013;49.744;8.118;2023-04-23T11:04:24;17.50;99.90
7936;DHT22;4013;49.744;8.118;2023-04-23T11:06:57;17.50;99.90
7936;DHT22;4013;49.744;8.118;2023-04-23T11:09:31;17.50;99.90
7936;DHT22;4013;49.744;8.118;2023-04-23T11:11:59;17.40;99.90
7936;DHT22;4013;49.744;8.118;2023-04-23T11:14:40;17.40;99.90
7936;DHT22;4013;49.744;8.118;2023-04-23T11:17:10;17.50;99.90
7936;DHT22;4013;49.744;8.118;2023-04-23T11:19:39;17.60;99.90
7936;DHT22;4013;49.744;8.118;2023-04-23T11:22:12;17.70;99.90
7936;DHT22;4013;49.744;8.118;2023-04-23T11:24:40;17.70;99.90
7936;DHT22;4013;49.744;8.118;2023-04-23T11:27:10;17.80;99.90
7936;DHT22;4013;49.744;8.118;2023-04-23T11:29:38;17.80;99.90
7936;DHT22;4013;49.744;8.118;2023-04-23T11:32:05;17.70;99.90
7936;DHT22;4013;49.744;8.118;2023-04-23T11:34:35;17.60;99.90
7936;DHT22;4013;49.744;8.118;2023-04-23T11:37:04;17.50;99.90
7936;DHT22;4013;49.744;8.118;2023-04-23T11:39:31;17.50;99.90
7936;DHT22;4013;49.744;8.118;2023-04-23T11:41:58;17.50;99.90
7936;DHT22;4013;49.744;8.118;2023-04-23T11:44:28;17.50;99.90
7936;DHT22;4013;49.744;8.118;2023-04-23T11:46:59;17.60;99.90
7936;DHT22;4013;49.744;8.118;2023-04-23T11:49:26;17.80;99.90
7936;DHT22;4013;49.744;8.118;2023-04-23T11:51:53;18.00;99.90
7936;DHT22;4013;49.744;8.118;2023-04-23T11:54:27;18.10;99.90
7936;DHT22;4013;49.744;8.118;2023-04-23T11:56:55;18.30;99.90
7936;DHT22;4013;49.744;8.118;2023-04-23T11:59:22;18.30;99.90
7936;DHT22;4013;49.744;8.118;2023-04-23T12:01:52;18.20;99.90
7936;DHT22;4013;49.744;8.118;2023-04-23T12:04:22;18.20;99.90
7936;DHT22;4013;49.744;8.118;2023-04-23T12:06:50;18.30;99.90
7936;DHT22;4013;49.744;8.118;2023-04-23T12:09:19;18.20;99.90
7936;DHT22;4013;49.744;8.118;2023-04-23T12:11:48;18.20;99.90
7936;DHT22;4013;49.744;8.118;2023-04-23T12:14:17;18.00;99.90
7936;DHT22;4013;49.744;8.118;2023-04-23T12:16:46;18.00;99.90
7936;DHT22;4013;49.744;8.118;2023-04-23T12:19:18;18.00;99.90
7936;DHT22;4013;49.744;8.118;2023-04-23T12:21:52;18.20;99.90
7936;DHT22;4013;49.744;8.118;2023-04-23T12:24:21;18.50;99.90
7936;DHT22;4013;49.744;8.118;2023-04-23T12:26:51;18.70;99.90
7936;DHT22;4013;49.744;8.118;2023-04-23T12:29:20;18.70;99.90
7936;DHT22;4013;49.744;8.118;2023-04-23T12:31:48;18.70;99.90
7936;DHT22;4013;49.744;8.118;2023-04-23T12:34:17;18.60;99.90
7936;DHT22;4013;49.744;8.118;2023-04-23T12:36:45;18.70;99.90
7936;DHT22;4013;49.744;8.118;2023-04-23T12:39:19;18.70;99.90
7936;DHT22;4013;49.744;8.118;2023-04-23T12:41:48;18.40;99.90
7936;DHT22;4013;49.744;8.118;2023-04-23T12:44:16;18.40;99.90
7936;DHT22;4013;49.744;8.118;2023-04-23T12:46:43;18.50;99.90
7936;DHT22;4013;49.744;8.118;2023-04-23T12:49:10;18.70;99.90
7936;DHT22;4013;49.744;8.118;2023-04-23T12:51:37;18.70;99.90
7936;DHT22;4013;49.744;8.118;2023-04-23T12:54:04;18.90;99.90
7936;DHT22;4013;49.744;8.118;2023-04-23T12:56:31;18.80;99.90
7936;DHT22;4013;49.744;8.118;2023-04-23T12:58:58;18.90;99.90
7936;DHT22;4013;49.744;8.118;2023-04-23T13:01:28;19.00;99.90
7936;DHT22;4013;49.744;8.118;2023-04-23T13:03:55;19.20;99.90
7936;DHT22;4013;49.744;8.118;2023-04-23T13:06:22;19.40;99.90
7936;DHT22;4013;49.744;8.118;2023-04-23T13:08:50;19.50;99.90
7936;DHT22;4013;49.744;8.118;2023-04-23T13:11:18;19.50;99.90
7936;DHT22;4013;49.744;8.118;2023-04-23T13:13:45;19.20;99.90
7936;DHT22;4013;49.744;8.118;2023-04-23T13:16:12;18.80;99.90
7936;DHT22;4013;49.744;8.118;2023-04-23T13:18:41;18.70;99.90
7936;DHT22;4013;49.744;8.118;2023-04-23T13:21:08;18.50;99.90
7936;DHT22;4013;49.744;8.118;2023-04-23T13:23:36;18.50;99.90
7936;DHT22;4013;49.744;8.118;2023-04-23T13:26:03;18.70;99.90
7936;DHT22;4013;49.744;8.118;2023-04-23T13:28:31;18.90;99.90
7936;DHT22;4013;49.744;8.118;2023-04-23T13:30:58;19.00;99.90
7936;DHT22;4013;49.744;8.118;2023-04-23T13:33:25;19.10;99.90
7936;DHT22;4013;49.744;8.118;2023-04-23T13:35:54;19.00;99.90
7936;DHT22;4013;49.744;8.118;2023-04-23T13:38:22;18.90;99.90
7936;DHT22;4013;49.744;8.118;2023-04-23T13:40:49;18.90;99.90
7936;DHT22;4013;49.744;8.118;2023-04-23T13:43:16;19.10;99.90
7936;DHT22;4013;49.744;8.118;2023-04-23T13:45:43;19.00;99.90
7936;DHT22;4013;49.744;8.118;2023-04-23T13:48:10;19.00;99.90
7936;DHT22;4013;49.744;8.118;2023-04-23T13:50:38;19.10;99.90
7936;DHT22;4013;49.744;8.118;2023-04-23T13:53:07;19.10;99.90
7936;DHT22;4013;49.744;8.118;2023-04-23T13:55:34;19.10;99.90
7936;DHT22;4013;49.744;8.118;2023-04-23T13:58:01;19.10;99.90
7936;DHT22;4013;49.744;8.118;2023-04-23T14:00:29;19.10;99.90
7936;DHT22;4013;49.744;8.118;2023-04-23T14:02:56;19.10;99.90
7936;DHT22;4013;49.744;8.118;2023-04-23T14:05:26;19.00;99.90
7936;DHT22;4013;49.744;8.118;2023-04-23T14:07:53;19.00;99.90
7936;DHT22;4013;49.744;8.118;2023-04-23T14:10:21;19.00;99.90
7936;DHT22;4013;49.744;8.118;2023-04-23T14:12:48;19.10;99.90
7936;DHT22;4013;49.744;8.118;2023-04-23T14:15:15;19.00;99.90
7936;DHT22;4013;49.744;8.118;2023-04-23T14:17:42;19.00;99.90
7936;DHT22;4013;49.744;8.118;2023-04-23T14:20:11;18.90;99.90
7936;DHT22;4013;49.744;8.118;2023-04-23T14:22:40;18.90;99.90
7936;DHT22;4013;49.744;8.118;2023-04-23T14:25:08;18.80;99.90
7936;DHT22;4013;49.744;8.118;2023-04-23T14:27:39;18.70;99.90
7936;DHT22;4013;49.744;8.118;2023-04-23T14:30:14;18.60;99.90
7936;DHT22;4013;49.744;8.118;2023-04-23T14:32:41;18.60;99.90
7936;DHT22;4013;49.744;8.118;2023-04-23T14:35:11;18.60;99.90
7936;DHT22;4013;49.744;8.118;2023-04-23T14:37:39;18.60;99.90
7936;DHT22;4013;49.744;8.118;2023-04-23T14:40:12;18.50;99.90
7936;DHT22;4013;49.744;8.118;2023-04-23T14:42:47;18.50;99.90
7936;DHT22;4013;49.744;8.118;2023-04-23T14:45:15;18.50;99.90
7936;DHT22;4013;49.744;8.118;2023-04-23T14:47:44;18.50;99.90
7936;DHT22;4013;49.744;8.118;2023-04-23T14:50:14;18.40;99.90
7936;DHT22;4013;49.744;8.118;2023-04-23T14:52:46;18.40;99.90
7936;DHT22;4013;49.744;8.118;2023-04-23T14:55:13;18.30;99.90
7936;DHT22;4013;49.744;8.118;2023-04-23T14:57:41;18.30;99.90
7936;DHT22;4013;49.744;8.118;2023-04-23T15:00:10;18.20;99.90
7936;DHT22;4013;49.744;8.118;2023-04-23T15:02:39;18.10;99.90
7936;DHT22;4013;49.744;8.118;2023-04-23T15:05:07;18.00;99.90
7936;DHT22;4013;49.744;8.118;2023-04-23T15:07:34;18.00;99.90
7936;DHT22;4013;49.744;8.118;2023-04-23T15:10:01;17.90;99.90
7936;DHT22;4013;49.744;8.118;2023-04-23T15:12:47;17.80;99.90
7936;DHT22;4013;49.744;8.118;2023-04-23T15:15:20;17.70;99.90
7936;DHT22;4013;49.744;8.118;2023-04-23T15:17:48;17.60;99.90
7936;DHT22;4013;49.744;8.118;2023-04-23T15:20:15;17.50;99.90
7936;DHT22;4013;49.744;8.118;2023-04-23T15:22:42;17.50;99.90
7936;DHT22;4013;49.744;8.118;2023-04-23T15:25:09;17.30;99.90
7936;DHT22;4013;49.744;8.118;2023-04-23T15:27:36;17.00;99.90
7936;DHT22;4013;49.744;8.118;2023-04-23T15:30:04;16.80;99.90
7936;DHT22;4013;49.744;8.118;2023-04-23T15:32:33;16.60;99.90
7936;DHT22;4013;49.744;8.118;2023-04-23T15:35:00;16.50;99.90
7936;DHT22;4013;49.744;8.118;2023-04-23T15:37:26;16.50;99.90
7936;DHT22;4013;49.744;8.118;2023-04-23T15:39:55;16.50;99.90
7936;DHT22;4013;49.744;8.118;2023-04-23T15:42:22;16.60;99.90
7936;DHT22;4013;49.744;8.118;2023-04-23T15:44:51;16.50;99.90
7936;DHT22;4013;49.744;8.118;2023-04-23T15:47:20;16.50;99.90
7936;DHT22;4013;49.744;8.118;2023-04-23T15:49:49;15.90;99.90
7936;DHT22;4013;49.744;8.118;2023-04-23T15:52:16;15.10;99.90
7936;DHT22;4013;49.744;8.118;2023-04-23T15:54:43;14.50;99.90
7936;DHT22;4013;49.744;8.118;2023-04-23T15:57:10;14.20;99.90
7936;DHT22;4013;49.744;8.118;2023-04-23T15:59:37;14.10;99.90
7936;DHT22;4013;49.744;8.118;2023-04-23T16:02:05;14.10;99.90
7936;DHT22;4013;49.744;8.118;2023-04-23T16:04:31;14.10;99.90
7936;DHT22;4013;49.744;8.118;2023-04-23T16:07:00;14.10;99.90